Time;durP1;ratioP1;P1;durP2;ratioP2;P2;SDS_P1;SDS_P2;PMS_P1;PMS_P2;Temp;Humidity;BMP_temperature;BMP_pressure;BME280_temperature;BME280_humidity;BME280_pressure;Samples;Min_cycle;Max_cycle;Signal;HPM_P1;HPM_P2
2022/09/27 00:01:04;;;;;;;3.63;1.20;;;13.00;99.90;;;;;;5090967;28;20225;-73
2022/09/27 00:03:30;;;;;;;3.15;1.20;;;13.00;99.90;;;;;;5091909;28;20199;-74
2022/09/27 00:06:06;;;;;;;4.20;1.57;;;12.90;99.90;;;;;;5073830;28;20325;-73
2022/09/27 00:08:33;;;;;;;2.88;0.93;;;12.90;99.90;;;;;;5092432;28;20522;-73
2022/09/27 00:11:06;;;;;;;3.05;1.20;;;12.90;99.90;;;;;;5074176;28;20654;-73
2022/09/27 00:13:32;;;;;;;5.35;1.50;;;12.90;99.90;;;;;;5074393;28;20180;-73
2022/09/27 00:15:59;;;;;;;3.20;0.80;;;12.80;99.90;;;;;;5092061;28;20191;-73
2022/09/27 00:18:26;;;;;;;4.13;1.15;;;12.80;99.90;;;;;;5092175;28;20615;-73
2022/09/27 00:20:52;;;;;;;2.25;0.82;;;12.80;99.90;;;;;;5091948;28;20176;-73
2022/09/27 00:23:18;;;;;;;4.85;0.90;;;12.80;99.90;;;;;;5091915;28;20534;-73
2022/09/27 00:25:55;;;;;;;2.90;1.00;;;12.80;99.90;;;;;;5090622;28;20278;-73
2022/09/27 00:28:21;;;;;;;2.33;0.80;;;12.80;99.90;;;;;;5092072;28;20170;-73
2022/09/27 00:30:47;;;;;;;3.55;0.88;;;12.80;99.90;;;;;;5090853;28;20214;-73
2022/09/27 00:33:13;;;;;;;4.90;1.20;;;12.70;99.90;;;;;;5090686;28;20203;-73
2022/09/27 00:35:39;;;;;;;2.07;0.97;;;12.70;99.90;;;;;;5090504;28;20574;-73
2022/09/27 00:38:05;;;;;;;3.90;1.00;;;12.70;99.90;;;;;;5091872;28;20593;-73
2022/09/27 00:40:32;;;;;;;1.50;0.82;;;12.70;99.90;;;;;;5091761;28;20569;-73
2022/09/27 00:42:57;;;;;;;3.30;1.08;;;12.70;99.90;;;;;;5090936;28;20579;-73
2022/09/27 00:45:26;;;;;;;2.13;1.30;;;12.70;99.90;;;;;;5092231;28;20226;-73
2022/09/27 00:48:03;;;;;;;2.55;1.10;;;12.70;99.90;;;;;;5091922;28;20163;-73
2022/09/27 00:50:36;;;;;;;3.60;1.13;;;12.70;99.90;;;;;;5091874;28;20168;-73
2022/09/27 00:53:10;;;;;;;2.85;1.05;;;12.70;99.90;;;;;;5090484;28;20213;-73
2022/09/27 00:55:43;;;;;;;4.15;1.35;;;12.70;99.90;;;;;;5090502;28;20194;-73
2022/09/27 00:58:12;;;;;;;2.47;1.10;;;12.80;99.90;;;;;;5092088;28;20559;-73
2022/09/27 01:00:43;;;;;;;6.40;1.48;;;12.80;99.90;;;;;;5091680;28;20263;-73
2022/09/27 01:03:14;;;;;;;3.35;1.30;;;12.80;99.90;;;;;;5090538;28;20246;-74
2022/09/27 01:05:40;;;;;;;3.25;1.20;;;12.80;99.90;;;;;;5091559;28;20203;-73
2022/09/27 01:08:06;;;;;;;1.83;1.33;;;12.90;99.90;;;;;;5091092;28;20259;-74
2022/09/27 01:10:39;;;;;;;3.65;1.52;;;12.80;99.90;;;;;;5090529;28;20552;-73
2022/09/27 01:13:11;;;;;;;3.38;1.27;;;12.80;99.90;;;;;;5090909;28;20156;-73
2022/09/27 01:15:39;;;;;;;2.85;1.15;;;12.90;99.90;;;;;;5077214;28;20258;-73
2022/09/27 01:18:29;;;;;;;3.80;1.30;;;12.90;99.90;;;;;;5095565;28;20189;-73
2022/09/27 01:21:20;;;;;;;4.50;0.98;;;12.80;99.90;;;;;;5094229;28;20160;-73
2022/09/27 01:24:07;;;;;;;2.42;0.80;;;12.80;99.90;;;;;;5096200;28;20532;-73
2022/09/27 01:26:57;;;;;;;2.50;0.77;;;12.80;99.90;;;;;;5094107;28;20183;-73
2022/09/27 01:29:45;;;;;;;2.65;0.85;;;12.80;99.90;;;;;;5094375;28;20584;-73
2022/09/27 01:32:21;;;;;;;1.85;0.90;;;12.80;99.90;;;;;;5093986;28;20172;-73
2022/09/27 01:35:24;;;;;;;5.03;1.00;;;12.80;99.90;;;;;;5093995;28;20176;-73
2022/09/27 01:38:14;;;;;;;5.20;1.45;;;12.70;99.90;;;;;;5094103;28;20539;-73
2022/09/27 01:40:54;;;;;;;3.15;1.27;;;12.70;99.90;;;;;;5095171;28;20176;-73
2022/09/27 01:44:03;;;;;;;1.45;0.70;;;12.70;99.90;;;;;;5093959;28;20211;-73
2022/09/27 01:46:59;;;;;;;1.55;0.80;;;12.70;99.90;;;;;;5093832;28;20211;-73
2022/09/27 01:49:57;;;;;;;1.90;0.80;;;12.70;99.90;;;;;;5092680;28;20188;-73
2022/09/27 01:52:34;;;;;;;4.60;1.20;;;12.70;99.90;;;;;;5093695;28;20572;-73
2022/09/27 01:55:05;;;;;;;2.95;1.00;;;12.60;99.90;;;;;;5093609;28;20228;-73
2022/09/27 01:58:12;;;;;;;3.63;1.08;;;12.60;99.90;;;;;;5065659;28;20191;-73
2022/09/27 02:00:45;;;;;;;2.85;1.20;;;12.60;99.90;;;;;;5096441;28;20207;-73
2022/09/27 02:03:27;;;;;;;5.25;1.60;;;12.60;99.90;;;;;;5093375;28;20544;-74
2022/09/27 02:06:24;;;;;;;3.55;1.63;;;12.60;99.90;;;;;;5094309;28;20573;-72
2022/09/27 02:09:35;;;;;;;3.42;1.30;;;12.60;99.90;;;;;;5094569;28;20464;-73
2022/09/27 02:12:21;;;;;;;3.65;2.05;;;12.60;99.90;;;;;;5087935;28;20215;-72
2022/09/27 02:15:08;;;;;;;2.05;1.27;;;12.60;99.90;;;;;;5093130;28;20203;-72
2022/09/27 02:17:46;;;;;;;5.28;1.77;;;12.60;99.90;;;;;;5059519;28;20206;-72
2022/09/27 02:20:22;;;;;;;2.88;1.80;;;12.60;99.90;;;;;;5092802;28;20232;-72
2022/09/27 02:23:24;;;;;;;3.85;1.33;;;12.60;99.90;;;;;;5092784;28;20171;-71
2022/09/27 02:26:11;;;;;;;1.52;1.00;;;12.60;99.90;;;;;;5076650;28;20540;-72
2022/09/27 02:28:44;;;;;;;2.53;1.10;;;12.60;99.90;;;;;;5092810;28;20251;-72
2022/09/27 02:31:22;;;;;;;3.72;1.35;;;12.60;99.90;;;;;;5092674;28;20214;-72
2022/09/27 02:33:55;;;;;;;4.47;1.33;;;12.60;99.90;;;;;;5076133;28;20163;-72
2022/09/27 02:36:21;;;;;;;2.25;1.40;;;12.60;99.90;;;;;;5095557;28;20183;-72
2022/09/27 02:38:48;;;;;;;6.72;1.33;;;12.60;99.90;;;;;;5075676;28;20182;-73
2022/09/27 02:41:18;;;;;;;2.10;0.90;;;12.50;99.90;;;;;;5075762;28;20182;-73
2022/09/27 02:43:53;;;;;;;1.50;0.90;;;12.50;99.90;;;;;;5075814;28;20188;-73
2022/09/27 02:46:26;;;;;;;2.13;1.17;;;12.50;99.90;;;;;;5092341;28;20274;-73
2022/09/27 02:49:09;;;;;;;2.35;1.00;;;12.50;99.90;;;;;;5092476;28;20210;-73
2022/09/27 02:51:59;;;;;;;1.77;1.10;;;12.40;99.90;;;;;;5092445;28;20195;-73
2022/09/27 02:54:43;;;;;;;2.60;0.85;;;12.40;99.90;;;;;;5092335;28;20175;-72
2022/09/27 02:58:03;;;;;;;2.45;0.80;;;12.40;99.90;;;;;;5069428;28;20579;-73
2022/09/27 03:00:58;;;;;;;2.47;1.25;;;12.40;99.90;;;;;;5092257;28;20171;-72
2022/09/27 03:04:11;;;;;;;2.15;0.90;;;12.40;99.90;;;;;;5050520;28;20208;-72
2022/09/27 03:06:41;;;;;;;2.00;0.90;;;12.40;99.90;;;;;;5050644;28;20577;-73
2022/09/27 03:09:18;;;;;;;4.38;1.30;;;12.40;99.90;;;;;;5074182;28;20184;-73
2022/09/27 03:11:44;;;;;;;3.55;1.20;;;12.40;99.90;;;;;;5092527;28;20166;-73
2022/09/27 03:14:10;;;;;;;2.37;1.20;;;12.40;99.90;;;;;;5094661;28;20167;-73
2022/09/27 03:16:42;;;;;;;2.25;1.00;;;12.40;99.90;;;;;;5091946;28;20613;-73
2022/09/27 03:19:24;;;;;;;3.55;1.60;;;12.40;99.90;;;;;;5091832;28;20178;-73
2022/09/27 03:22:25;;;;;;;2.63;1.13;;;12.40;99.90;;;;;;5092821;28;20537;-73
2022/09/27 03:24:51;;;;;;;1.85;1.20;;;12.50;99.90;;;;;;5074704;28;20257;-73
2022/09/27 03:27:17;;;;;;;2.00;1.20;;;12.50;99.90;;;;;;5091707;28;20213;-73
2022/09/27 03:29:43;;;;;;;4.63;0.95;;;12.50;99.90;;;;;;5074840;28;20579;-73
2022/09/27 03:32:09;;;;;;;2.45;0.90;;;12.50;99.90;;;;;;5091626;28;20252;-73
2022/09/27 03:34:53;;;;;;;2.60;0.90;;;12.50;99.90;;;;;;5091600;28;20192;-73
2022/09/27 03:37:20;;;;;;;1.52;0.88;;;12.60;99.90;;;;;;5091721;28;20192;-73
2022/09/27 03:39:46;;;;;;;1.50;0.80;;;12.50;99.90;;;;;;5092641;28;20497;-74
2022/09/27 03:42:12;;;;;;;2.37;0.67;;;12.50;99.90;;;;;;5091405;28;20245;-73
2022/09/27 03:44:44;;;;;;;1.50;0.50;;;12.50;99.90;;;;;;5075530;28;20634;-72
2022/09/27 03:47:09;;;;;;;2.73;0.80;;;12.50;99.90;;;;;;5074422;28;20535;-73
2022/09/27 03:49:36;;;;;;;3.35;0.65;;;12.40;99.90;;;;;;5075545;28;20175;-73
2022/09/27 03:52:02;;;;;;;1.50;0.60;;;12.40;99.90;;;;;;5092397;28;20498;-73
2022/09/27 03:54:28;;;;;;;2.40;0.90;;;12.30;99.90;;;;;;5091569;28;20163;-73
2022/09/27 03:56:54;;;;;;;2.50;0.90;;;12.20;99.90;;;;;;5091439;28;20692;-73
2022/09/27 03:59:20;;;;;;;4.25;0.85;;;12.20;99.90;;;;;;5091180;28;20178;-74
2022/09/27 04:02:08;;;;;;;1.83;0.90;;;12.20;99.90;;;;;;5092359;28;20171;-74
2022/09/27 04:04:57;;;;;;;2.63;1.00;;;12.10;99.90;;;;;;5072426;28;20215;-74
2022/09/27 04:07:23;;;;;;;2.55;1.00;;;12.00;99.90;;;;;;5090799;28;20215;-73
2022/09/27 04:09:50;;;;;;;4.20;1.23;;;12.00;99.90;;;;;;5091613;28;20179;-73
2022/09/27 04:12:15;;;;;;;2.03;0.87;;;11.90;99.90;;;;;;5090858;28;20174;-73
2022/09/27 04:14:42;;;;;;;2.85;0.90;;;11.90;99.90;;;;;;5090938;28;21147;-73
2022/09/27 04:17:26;;;;;;;2.05;0.80;;;11.90;99.90;;;;;;5092013;28;20183;-73
2022/09/27 04:20:11;;;;;;;1.95;0.90;;;11.80;99.90;;;;;;5090903;28;20174;-73
2022/09/27 04:22:44;;;;;;;1.40;0.70;;;11.70;99.90;;;;;;5090870;28;20241;-72
2022/09/27 04:25:11;;;;;;;4.05;0.90;;;11.70;99.90;;;;;;5092021;28;20529;-73
2022/09/27 04:27:44;;;;;;;1.50;0.80;;;11.70;99.90;;;;;;5093140;28;20287;-73
2022/09/27 04:30:11;;;;;;;2.72;0.80;;;11.60;99.90;;;;;;5090506;28;20247;-73
2022/09/27 04:32:57;;;;;;;2.45;0.90;;;11.60;99.90;;;;;;5080827;28;20185;-73
2022/09/27 04:38:26;;;;;;;2.03;0.75;;;11.60;99.90;;;;;;5090563;28;20182;-73
2022/09/27 04:40:52;;;;;;;4.20;1.37;;;11.50;99.90;;;;;;5090428;28;20167;-73
2022/09/27 04:43:19;;;;;;;2.13;0.90;;;11.50;99.90;;;;;;5090398;28;21183;-73
2022/09/27 04:45:45;;;;;;;1.93;0.80;;;11.50;99.90;;;;;;5090267;28;20187;-73
2022/09/27 04:48:11;;;;;;;2.90;0.70;;;11.50;99.90;;;;;;5092933;28;20200;-73
2022/09/27 04:50:39;;;;;;;5.13;1.35;;;11.50;99.90;;;;;;5097004;28;21116;-73
2022/09/27 04:53:05;;;;;;;3.70;0.90;;;11.50;99.90;;;;;;5097046;28;20172;-73
2022/09/27 04:55:31;;;;;;;2.50;0.70;;;11.50;99.90;;;;;;5098176;28;20206;-73
2022/09/27 04:58:00;;;;;;;3.38;1.45;;;11.50;99.90;;;;;;5063591;28;20167;-73
2022/09/27 05:00:27;;;;;;;3.70;0.80;;;11.50;99.90;;;;;;5097110;28;20207;-73
2022/09/27 05:03:01;;;;;;;2.70;0.70;;;11.50;99.90;;;;;;5097050;28;20175;-74
2022/09/27 05:05:38;;;;;;;2.78;0.80;;;11.50;99.90;;;;;;5081414;28;20183;-73
2022/09/27 05:08:03;;;;;;;2.23;0.80;;;11.50;99.90;;;;;;5097152;28;20250;-74
2022/09/27 05:10:47;;;;;;;2.53;1.05;;;11.50;99.90;;;;;;5097033;28;20168;-75
2022/09/27 05:13:13;;;;;;;4.50;1.15;;;11.50;99.90;;;;;;5096784;28;20168;-73
2022/09/27 05:15:47;;;;;;;2.28;0.90;;;11.50;99.90;;;;;;5098057;28;20180;-74
2022/09/27 05:18:33;;;;;;;5.00;1.30;;;11.50;99.90;;;;;;5079797;28;20175;-73
2022/09/27 05:21:24;;;;;;;2.28;1.00;;;11.50;99.90;;;;;;5081391;28;20191;-73
2022/09/27 05:23:50;;;;;;;2.00;1.23;;;11.50;99.90;;;;;;5079850;28;20203;-74
2022/09/27 05:26:16;;;;;;;2.33;2.00;;;11.50;99.90;;;;;;5097832;28;20248;-73
2022/09/27 05:28:42;;;;;;;3.67;1.40;;;11.50;99.90;;;;;;5097893;28;20163;-73
2022/09/27 05:31:10;;;;;;;3.20;1.02;;;11.50;99.90;;;;;;5096720;28;20175;-73
2022/09/27 05:33:36;;;;;;;4.07;1.60;;;11.60;99.90;;;;;;5096851;28;20288;-74
2022/09/27 05:36:22;;;;;;;3.90;1.40;;;11.60;99.90;;;;;;5097867;28;20183;-74
2022/09/27 05:38:48;;;;;;;3.22;1.20;;;11.70;99.90;;;;;;5096873;28;20167;-74
2022/09/27 05:41:14;;;;;;;3.22;1.20;;;11.70;99.90;;;;;;5080059;28;20167;-74
2022/09/27 05:43:40;;;;;;;3.27;1.10;;;11.70;99.90;;;;;;5083158;28;20286;-74
2022/09/27 05:46:07;;;;;;;2.70;1.20;;;11.70;99.90;;;;;;5096752;28;20256;-74
2022/09/27 05:48:33;;;;;;;3.13;1.20;;;11.60;99.90;;;;;;5079781;28;20178;-74
2022/09/27 05:51:03;;;;;;;2.78;1.33;;;11.60;99.90;;;;;;5096616;28;20186;-73
2022/09/27 05:53:32;;;;;;;3.97;1.25;;;11.60;99.90;;;;;;5096812;28;20175;-73
2022/09/27 05:56:04;;;;;;;3.13;1.73;;;11.50;99.90;;;;;;5096539;28;20266;-73
2022/09/27 05:58:57;;;;;;;3.33;1.55;;;11.50;99.90;;;;;;5094556;28;20203;-73
2022/09/27 06:01:26;;;;;;;3.58;1.90;;;11.50;99.90;;;;;;5092324;28;20164;-73
2022/09/27 06:04:02;;;;;;;7.15;2.10;;;11.60;99.90;;;;;;5094399;28;20207;-73
2022/09/27 06:06:57;;;;;;;3.50;2.00;;;11.60;99.90;;;;;;5063184;28;20682;-73
2022/09/27 06:09:24;;;;;;;2.10;1.40;;;11.70;99.90;;;;;;5093082;28;20172;-73
2022/09/27 06:11:51;;;;;;;2.70;1.58;;;11.70;99.90;;;;;;5093196;28;20182;-74
2022/09/27 06:14:18;;;;;;;5.40;2.83;;;11.80;99.90;;;;;;5093349;28;20179;-72
2022/09/27 06:16:55;;;;;;;8.30;1.55;;;11.80;99.90;;;;;;5093006;28;20223;-73
2022/09/27 06:19:24;;;;;;;2.42;1.20;;;11.90;99.90;;;;;;5093503;28;20175;-73
2022/09/27 06:21:50;;;;;;;5.23;1.20;;;11.90;99.90;;;;;;5092862;28;20178;-73
2022/09/27 06:24:16;;;;;;;1.80;1.10;;;12.00;99.90;;;;;;5094208;28;20617;-73
2022/09/27 06:26:43;;;;;;;3.88;1.85;;;12.00;99.90;;;;;;5092713;28;20187;-73
2022/09/27 06:29:29;;;;;;;4.60;1.52;;;12.00;99.90;;;;;;5093960;28;20167;-73
2022/09/27 06:32:00;;;;;;;2.47;1.48;;;12.10;99.90;;;;;;5092670;28;20163;-73
2022/09/27 06:34:44;;;;;;;1.80;1.05;;;12.20;99.90;;;;;;5093073;28;20167;-73
2022/09/27 06:37:11;;;;;;;2.40;1.00;;;12.20;99.90;;;;;;5092629;28;20225;-72
2022/09/27 06:39:37;;;;;;;3.78;1.00;;;12.30;99.90;;;;;;5092464;28;20925;-73
2022/09/27 06:42:23;;;;;;;3.63;1.30;;;12.40;99.90;;;;;;5093448;28;20202;-73
2022/09/27 06:45:09;;;;;;;1.90;1.08;;;12.50;99.90;;;;;;5092607;28;20201;-73
2022/09/27 06:47:54;;;;;;;3.03;1.10;;;12.60;99.90;;;;;;5093791;28;20175;-72
2022/09/27 06:50:35;;;;;;;1.88;1.02;;;12.80;99.90;;;;;;5060092;28;20505;-73
2022/09/27 06:53:02;;;;;;;2.78;0.88;;;12.90;99.90;;;;;;5075899;28;20163;-73
2022/09/27 06:55:28;;;;;;;7.82;1.35;;;13.00;99.90;;;;;;5092261;28;20167;-74
2022/09/27 07:00:52;;;;;;;3.15;0.93;;;13.20;99.90;;;;;;5092017;28;20666;-73
2022/09/27 07:03:42;;;;;;;2.40;1.00;;;13.30;99.90;;;;;;5093181;28;20199;-72
2022/09/27 07:06:39;;;;;;;1.57;0.73;;;13.40;99.90;;;;;;5092472;28;20620;-75
2022/09/27 07:09:16;;;;;;;1.50;0.80;;;13.50;99.90;;;;;;5076509;28;20553;-75
2022/09/27 07:11:44;;;;;;;5.88;1.20;;;13.60;99.90;;;;;;5091606;28;20213;-75
2022/09/27 07:14:10;;;;;;;1.65;0.80;;;13.60;99.90;;;;;;5091838;28;20182;-75
2022/09/27 07:16:37;;;;;;;1.87;0.80;;;13.60;99.90;;;;;;5091561;28;20191;-76
2022/09/27 07:19:06;;;;;;;1.60;0.90;;;13.70;99.90;;;;;;5091629;28;20605;-76
2022/09/27 07:21:33;;;;;;;2.80;0.90;;;13.70;99.90;;;;;;5091172;28;20928;-75
2022/09/27 07:23:59;;;;;;;2.23;1.10;;;13.70;99.90;;;;;;5091488;28;20204;-76
2022/09/27 07:26:26;;;;;;;3.28;0.90;;;13.70;99.90;;;;;;5091996;28;20643;-77
2022/09/27 07:28:52;;;;;;;4.30;1.20;;;13.70;99.90;;;;;;5091639;28;20160;-76
2022/09/27 07:31:20;;;;;;;6.45;0.80;;;13.70;99.90;;;;;;5091242;28;20168;-76
2022/09/27 07:33:45;;;;;;;2.33;0.77;;;13.70;99.90;;;;;;5079414;28;20252;-76
2022/09/27 07:36:12;;;;;;;2.10;0.90;;;13.70;99.90;;;;;;5091492;28;20195;-76
2022/09/27 07:38:41;;;;;;;2.05;0.80;;;13.60;99.90;;;;;;5074755;28;20184;-76
2022/09/27 07:41:09;;;;;;;4.80;0.90;;;13.60;99.90;;;;;;5091051;28;20670;-76
2022/09/27 07:43:35;;;;;;;2.17;0.70;;;13.60;99.90;;;;;;5074576;28;20570;-76
2022/09/27 07:46:01;;;;;;;1.30;0.67;;;13.50;99.90;;;;;;5091223;28;20200;-76
2022/09/27 07:48:45;;;;;;;3.38;0.82;;;13.50;99.90;;;;;;5092437;28;20575;-76
2022/09/27 07:51:24;;;;;;;3.90;2.15;;;13.50;99.90;;;;;;5091995;28;20171;-76
2022/09/27 07:54:02;;;;;;;3.28;0.77;;;13.50;99.90;;;;;;5091333;28;20171;-76
2022/09/27 07:56:41;;;;;;;2.22;0.57;;;13.50;99.90;;;;;;5092292;28;20191;-76
2022/09/27 07:59:10;;;;;;;2.17;0.65;;;13.50;99.90;;;;;;5074962;28;20186;-76
2022/09/27 08:01:35;;;;;;;1.50;0.60;;;13.50;99.90;;;;;;5092193;28;20167;-76
2022/09/27 08:04:01;;;;;;;2.17;0.70;;;13.60;99.90;;;;;;5074261;28;21188;-76
2022/09/27 08:06:28;;;;;;;2.33;0.60;;;13.60;99.90;;;;;;5090632;28;20322;-76
2022/09/27 08:08:54;;;;;;;2.42;0.60;;;13.70;99.90;;;;;;5091047;28;20631;-76
2022/09/27 08:11:20;;;;;;;1.47;0.60;;;13.80;99.90;;;;;;5095936;28;20168;-77
2022/09/27 08:13:51;;;;;;;1.23;0.50;;;13.90;99.90;;;;;;5090683;28;20589;-76
2022/09/27 08:16:18;;;;;;;1.83;0.60;;;14.00;99.90;;;;;;5073724;28;20641;-77
2022/09/27 08:19:13;;;;;;;1.40;0.60;;;14.00;99.90;;;;;;5054021;28;21158;-76
2022/09/27 08:22:12;;;;;;;2.60;0.60;;;14.10;99.90;;;;;;5068027;28;20233;-76
2022/09/27 08:24:47;;;;;;;1.50;0.80;;;14.20;99.90;;;;;;5075382;28;20201;-73
2022/09/27 08:27:31;;;;;;;3.70;0.77;;;14.30;99.90;;;;;;5091851;28;20672;-73
2022/09/27 08:30:00;;;;;;;2.13;0.60;;;14.30;99.90;;;;;;5090598;28;20570;-74
2022/09/27 08:32:27;;;;;;;2.27;0.80;;;14.40;99.90;;;;;;5073860;28;20922;-73
2022/09/27 08:34:53;;;;;;;1.73;0.60;;;14.60;99.90;;;;;;5073691;28;20578;-73
2022/09/27 08:37:20;;;;;;;1.93;0.60;;;14.70;99.90;;;;;;5090398;28;20605;-74
2022/09/27 08:39:48;;;;;;;1.60;0.87;;;14.90;99.90;;;;;;5090306;28;21345;-73
2022/09/27 08:42:46;;;;;;;1.47;0.60;;;15.00;99.90;;;;;;5090437;28;21136;-73
2022/09/27 08:45:25;;;;;;;2.00;0.50;;;15.10;99.90;;;;;;5090330;28;21036;-74
2022/09/27 08:47:56;;;;;;;1.60;0.60;;;15.20;99.90;;;;;;5090749;28;20579;-74
2022/09/27 08:50:40;;;;;;;1.57;0.80;;;15.30;99.90;;;;;;5090279;28;21141;-74
2022/09/27 08:53:13;;;;;;;1.30;0.60;;;15.40;99.90;;;;;;5090373;28;20584;-74
2022/09/27 08:56:02;;;;;;;1.40;0.67;;;15.60;99.90;;;;;;5090407;28;20569;-74
2022/09/27 08:59:11;;;;;;;1.90;0.97;;;15.80;99.90;;;;;;5074396;28;20941;-74
2022/09/27 09:01:38;;;;;;;1.20;0.50;;;16.70;99.90;;;;;;5091217;28;21024;-74
2022/09/27 09:04:30;;;;;;;2.63;0.60;;;17.90;99.90;;;;;;5090386;28;20621;-73
2022/09/27 09:07:15;;;;;;;2.47;0.83;;;18.80;99.90;;;;;;5073133;28;21196;-73
2022/09/27 09:09:59;;;;;;;2.90;1.00;;;19.50;99.90;;;;;;5090181;28;20616;-73
2022/09/27 09:12:52;;;;;;;2.37;1.00;;;19.90;99.90;;;;;;5073627;28;20627;-73
2022/09/27 09:16:02;;;;;;;2.03;0.67;;;20.10;99.90;;;;;;5090115;28;20574;-73
2022/09/27 09:18:50;;;;;;;2.17;0.83;;;20.20;99.90;;;;;;5090136;28;20573;-74
2022/09/27 09:21:56;;;;;;;3.73;0.70;;;20.10;99.90;;;;;;5078017;28;20678;-73
2022/09/27 09:24:36;;;;;;;1.73;0.80;;;19.90;99.90;;;;;;5091890;28;20605;-74
2022/09/27 09:27:10;;;;;;;4.47;0.97;;;19.60;99.90;;;;;;5073123;28;20593;-73
2022/09/27 09:30:00;;;;;;;2.80;0.60;;;19.30;99.90;;;;;;5089796;28;20568;-72
2022/09/27 09:32:37;;;;;;;4.77;0.80;;;19.00;99.90;;;;;;5084605;28;20589;-72
2022/09/27 09:35:09;;;;;;;3.10;0.97;;;18.70;99.90;;;;;;5090993;28;20584;-73
2022/09/27 09:37:46;;;;;;;4.03;2.67;;;18.50;99.90;;;;;;5093901;28;20700;-74
2022/09/27 09:40:30;;;;;;;2.87;2.27;;;18.30;99.90;;;;;;5093728;28;20932;-73
2022/09/27 09:43:06;;;;;;;3.93;1.30;;;18.10;99.90;;;;;;5076573;28;21147;-73
2022/09/27 09:45:44;;;;;;;1.87;0.93;;;18.00;99.90;;;;;;5094709;28;20613;-73
2022/09/27 09:48:14;;;;;;;3.20;1.10;;;17.90;99.90;;;;;;5093669;28;20573;-73
2022/09/27 09:50:45;;;;;;;1.90;0.80;;;17.80;99.90;;;;;;5093383;28;20922;-73
2022/09/27 09:53:22;;;;;;;5.93;0.90;;;17.70;99.90;;;;;;5093542;28;20570;-72
2022/09/27 09:55:56;;;;;;;2.30;1.10;;;17.60;99.90;;;;;;5093362;28;20592;-73
2022/09/27 09:58:33;;;;;;;2.40;0.90;;;17.50;99.90;;;;;;5059846;28;20579;-72
2022/09/27 10:01:18;;;;;;;1.80;1.00;;;17.50;99.90;;;;;;5093400;28;20612;-72
2022/09/27 10:03:45;;;;;;;1.90;0.93;;;17.40;99.90;;;;;;5094762;28;20640;-72
2022/09/27 10:06:12;;;;;;;2.30;0.80;;;17.50;99.90;;;;;;5076185;28;20625;-73
2022/09/27 10:08:38;;;;;;;1.47;0.60;;;17.50;99.90;;;;;;5094297;28;20604;-73
2022/09/27 10:11:35;;;;;;;1.53;0.70;;;17.60;99.90;;;;;;5092940;28;21175;-72
2022/09/27 10:14:13;;;;;;;1.80;0.70;;;17.60;99.90;;;;;;5077414;28;20576;-73
2022/09/27 10:16:47;;;;;;;2.83;1.00;;;17.70;99.90;;;;;;5092971;28;20621;-73
2022/09/27 10:19:25;;;;;;;2.00;0.90;;;17.70;99.90;;;;;;5092944;28;21053;-73
2022/09/27 10:21:52;;;;;;;3.07;0.80;;;17.70;99.90;;;;;;5092865;28;20616;-73
2022/09/27 10:24:18;;;;;;;1.60;0.80;;;17.70;99.90;;;;;;5092890;28;20747;-73
2022/09/27 10:27:04;;;;;;;2.37;1.00;;;17.70;99.90;;;;;;5094029;28;20613;-72
2022/09/27 10:29:35;;;;;;;3.70;1.00;;;17.60;99.90;;;;;;5092696;28;20558;-73
2022/09/27 10:32:04;;;;;;;2.43;0.90;;;17.50;99.90;;;;;;5092670;28;20912;-73
2022/09/27 10:34:41;;;;;;;1.37;0.70;;;17.50;99.90;;;;;;5092668;28;20576;-73
2022/09/27 10:37:27;;;;;;;1.80;0.70;;;17.40;99.90;;;;;;5093869;28;21069;-73
2022/09/27 10:40:29;;;;;;;3.20;0.80;;;17.30;99.90;;;;;;5078547;28;20576;-73
2022/09/27 10:42:57;;;;;;;2.00;1.10;;;17.20;99.90;;;;;;5092475;28;20574;-72
2022/09/27 10:45:33;;;;;;;3.27;1.20;;;17.20;99.90;;;;;;5076482;28;20620;-73
2022/09/27 10:48:24;;;;;;;5.20;1.90;;;17.30;99.90;;;;;;5092361;28;20561;-73
2022/09/27 10:51:00;;;;;;;2.63;1.40;;;17.40;99.90;;;;;;5091956;28;20646;-73
2022/09/27 10:53:44;;;;;;;2.23;1.10;;;17.50;99.90;;;;;;5092286;28;20576;-73
2022/09/27 10:56:22;;;;;;;1.80;1.20;;;17.60;99.90;;;;;;5075263;28;20606;-74
2022/09/27 10:58:49;;;;;;;3.60;0.90;;;17.70;99.90;;;;;;5093888;28;20601;-73
2022/09/27 11:01:17;;;;;;;1.60;0.80;;;17.70;99.90;;;;;;5074990;28;20639;-74
2022/09/27 11:04:05;;;;;;;2.67;1.00;;;17.70;99.90;;;;;;5078304;28;20616;-73
2022/09/27 11:06:37;;;;;;;1.90;0.80;;;17.70;99.90;;;;;;5091806;28;20621;-73
2022/09/27 11:09:25;;;;;;;1.80;0.93;;;17.60;99.90;;;;;;5091912;28;20574;-73
2022/09/27 11:12:09;;;;;;;4.00;1.53;;;17.60;99.90;;;;;;5091872;28;20616;-73
2022/09/27 11:14:36;;;;;;;2.30;1.60;;;17.50;99.90;;;;;;5075454;28;20569;-73
2022/09/27 11:17:08;;;;;;;3.90;1.10;;;17.40;99.90;;;;;;5092496;28;20599;-73
2022/09/27 11:20:01;;;;;;;2.60;1.20;;;17.30;99.90;;;;;;5091799;28;20597;-73
2022/09/27 11:22:47;;;;;;;3.60;1.80;;;17.10;99.90;;;;;;5091832;28;20933;-74
2022/09/27 11:25:22;;;;;;;2.63;1.40;;;17.10;99.90;;;;;;5058565;28;20621;-73
2022/09/27 11:27:54;;;;;;;2.17;1.40;;;17.10;99.90;;;;;;5091452;28;20593;-73
2022/09/27 11:30:50;;;;;;;2.80;1.10;;;17.10;99.90;;;;;;5091578;28;20605;-73
2022/09/27 11:34:06;;;;;;;3.77;1.57;;;17.20;99.90;;;;;;5077971;28;21148;-73
2022/09/27 11:36:52;;;;;;;2.87;1.70;;;17.20;99.90;;;;;;5074845;28;20650;-73
2022/09/27 11:39:27;;;;;;;2.10;1.20;;;17.30;99.90;;;;;;5091377;28;20933;-72
2022/09/27 11:42:15;;;;;;;3.30;1.17;;;17.40;99.90;;;;;;5091509;28;20572;-72
2022/09/27 11:45:13;;;;;;;2.50;1.70;;;17.30;99.90;;;;;;5091408;28;20617;-73
2022/09/27 11:47:55;;;;;;;3.40;1.37;;;17.40;99.90;;;;;;5091542;28;20594;-74
2022/09/27 11:50:46;;;;;;;2.93;1.20;;;17.40;99.90;;;;;;5091343;28;20581;-74
2022/09/27 11:53:24;;;;;;;2.33;0.97;;;17.50;99.90;;;;;;5092295;28;20566;-74
2022/09/27 11:56:20;;;;;;;1.80;0.93;;;17.60;99.90;;;;;;5074446;28;20597;-73
2022/09/27 11:59:07;;;;;;;3.17;1.10;;;17.60;99.90;;;;;;5090228;28;20565;-72
2022/09/27 12:01:59;;;;;;;3.47;1.07;;;17.70;99.90;;;;;;5033410;28;20643;-73
2022/09/27 12:04:49;;;;;;;3.60;1.73;;;17.80;99.90;;;;;;5091251;28;21057;-72
2022/09/27 12:07:21;;;;;;;5.40;4.00;;;17.80;99.90;;;;;;5074501;28;20620;-72
2022/09/27 12:09:54;;;;;;;6.23;2.50;;;17.90;99.90;;;;;;5073709;28;20582;-73
2022/09/27 12:12:24;;;;;;;3.63;1.50;;;18.00;99.90;;;;;;5090835;28;20592;-72
2022/09/27 12:15:11;;;;;;;2.20;1.40;;;18.00;99.90;;;;;;5090671;28;20578;-73
2022/09/27 12:17:42;;;;;;;2.80;1.00;;;18.00;99.90;;;;;;5090549;28;20633;-73
2022/09/27 12:20:20;;;;;;;1.50;1.17;;;17.90;99.90;;;;;;5090465;28;20569;-73
2022/09/27 12:23:01;;;;;;;3.40;0.77;;;17.90;99.90;;;;;;5073689;28;20669;-73
2022/09/27 12:25:54;;;;;;;2.60;1.00;;;17.80;99.90;;;;;;5090464;28;20997;-74
2022/09/27 12:28:51;;;;;;;2.30;0.87;;;17.70;99.90;;;;;;5090653;28;20580;-74
2022/09/27 12:31:24;;;;;;;2.03;1.00;;;17.50;99.90;;;;;;5090550;28;20664;-73
2022/09/27 12:34:13;;;;;;;2.60;0.77;;;17.30;99.90;;;;;;5091910;28;20581;-74
2022/09/27 12:36:45;;;;;;;1.20;0.60;;;17.10;99.90;;;;;;5090497;28;20597;-73
2022/09/27 12:39:42;;;;;;;1.50;0.67;;;16.90;99.90;;;;;;5090243;28;20947;-73
2022/09/27 12:42:50;;;;;;;2.10;1.07;;;16.70;99.90;;;;;;5090526;28;20581;-73
2022/09/27 12:46:04;;;;;;;4.07;2.10;;;16.60;99.90;;;;;;5090275;28;20674;-73
2022/09/27 12:48:46;;;;;;;2.57;1.40;;;16.50;99.90;;;;;;5090426;28;20558;-73
2022/09/27 12:51:16;;;;;;;2.90;0.93;;;16.40;99.90;;;;;;5090026;28;20604;-73
2022/09/27 12:54:02;;;;;;;1.63;0.70;;;16.50;99.90;;;;;;5090350;28;20588;-73
2022/09/27 12:56:59;;;;;;;2.63;0.80;;;16.40;99.90;;;;;;5073476;28;20687;-73
2022/09/27 12:59:46;;;;;;;2.57;1.00;;;16.40;99.90;;;;;;5090083;28;20562;-73
2022/09/27 13:02:34;;;;;;;4.80;2.77;;;16.30;99.90;;;;;;5090189;28;20577;-72
2022/09/27 13:05:29;;;;;;;3.17;1.80;;;16.20;99.90;;;;;;5090229;28;20632;-72
2022/09/27 13:08:20;;;;;;;5.63;3.23;;;15.90;99.90;;;;;;5090711;28;21297;-72
2022/09/27 13:10:48;;;;;;;3.10;2.03;;;15.70;99.90;;;;;;5095201;28;20656;-73
2022/09/27 13:13:26;;;;;;;3.57;2.30;;;15.40;99.90;;;;;;5078038;28;20577;-73
2022/09/27 13:15:59;;;;;;;2.87;1.33;;;15.20;99.90;;;;;;5094044;28;20605;-73
2022/09/27 13:18:35;;;;;;;4.27;1.83;;;14.90;99.90;;;;;;5094189;28;20597;-72
2022/09/27 13:21:07;;;;;;;2.40;1.43;;;14.80;99.90;;;;;;5094067;28;21120;-73
2022/09/27 13:23:49;;;;;;;2.07;1.30;;;14.60;99.90;;;;;;5093977;28;20597;-73
2022/09/27 13:26:33;;;;;;;2.80;1.40;;;14.50;99.90;;;;;;5093829;28;21143;-73
2022/09/27 13:29:03;;;;;;;2.00;1.10;;;14.40;99.90;;;;;;5094207;28;21159;-73
2022/09/27 13:31:57;;;;;;;3.65;1.50;;;14.40;99.90;;;;;;5093993;28;20239;-73
2022/09/27 13:34:44;;;;;;;2.40;1.00;;;14.30;99.90;;;;;;5094007;28;20179;-73
2022/09/27 13:37:35;;;;;;;3.33;1.33;;;14.30;99.90;;;;;;5094033;28;20609;-73
2022/09/27 13:40:23;;;;;;;3.08;0.90;;;14.30;99.90;;;;;;5076690;28;20176;-75
2022/09/27 13:42:56;;;;;;;2.15;0.73;;;14.20;99.90;;;;;;5093901;28;20164;-73
2022/09/27 13:45:28;;;;;;;3.30;1.53;;;14.20;99.90;;;;;;5094249;28;20237;-73